createdAt,value
2022-09-28T00:14:51.975Z,30.295
2022-09-28T00:29:53.748Z,29.797
2022-09-28T00:44:55.599Z,29.203
2022-09-28T00:59:57.429Z,29.749
2022-09-28T01:14:59.309Z,29.883
2022-09-28T01:30:01.164Z,30.047
2022-09-28T01:45:02.994Z,30.622
2022-09-28T02:00:04.811Z,30.702
2022-09-28T02:15:06.645Z,30.755
2022-09-28T02:30:08.500Z,30.9
2022-09-28T02:45:10.387Z,31.159
2022-09-28T03:00:12.207Z,31.354
2022-09-28T03:15:14.020Z,31.124
2022-09-28T03:30:15.849Z,31.326
2022-09-28T03:45:17.723Z,30.914
2022-09-28T04:00:19.564Z,31.486
2022-09-28T04:15:21.382Z,31.61
2022-09-28T04:30:23.285Z,31.097
2022-09-28T04:45:25.171Z,31.22
2022-09-28T05:00:27.065Z,31.262
2022-09-28T05:15:28.916Z,31.228
2022-09-28T05:30:30.738Z,31.252
2022-09-28T05:45:32.635Z,32.136
2022-09-28T06:00:34.502Z,32.169
2022-09-28T06:15:36.358Z,31.407
2022-09-28T06:30:38.343Z,31.29
2022-09-28T06:45:40.361Z,30.666
2022-09-28T07:00:42.233Z,30.262
2022-09-28T07:15:44.093Z,31.318
2022-09-28T07:30:46.101Z,32.593
2022-09-28T07:45:48.005Z,31.669
2022-09-28T08:00:49.947Z,31.02
2022-09-28T08:15:51.825Z,29.056
2022-09-28T08:30:53.735Z,29.763
2022-09-28T08:45:55.629Z,30.341
2022-09-28T09:00:57.531Z,31.597
2022-09-28T09:15:59.403Z,33.171
2022-09-28T09:31:01.295Z,34.003
2022-09-28T09:46:03.226Z,33.078
2022-09-28T10:01:05.106Z,32.744
2022-09-28T10:16:06.981Z,33.045
2022-09-28T10:46:10.670Z,33.456
2022-09-28T11:01:12.578Z,33.643
2022-09-28T11:16:14.522Z,33.705
2022-09-28T11:31:16.589Z,33.894
2022-09-28T11:46:18.538Z,34.217
2022-09-28T12:01:20.436Z,34.63
2022-09-28T12:16:53.160Z,34.911
2022-09-28T12:32:05.747Z,35.141
2022-09-28T12:47:07.631Z,34.759
2022-09-28T13:02:09.610Z,34.841
2022-09-28T13:17:11.512Z,34.711
2022-09-28T13:32:13.368Z,35.512
2022-09-28T13:47:18.795Z,35.655
2022-09-28T14:02:22.462Z,35.189
2022-09-28T14:17:24.362Z,35.279
2022-09-28T14:32:26.159Z,35.051
2022-09-28T14:47:28.000Z,35.159
2022-09-28T15:02:29.853Z,35.136
2022-09-28T15:17:34.633Z,35.336
2022-09-28T15:32:38.963Z,34.69
2022-09-28T15:47:40.811Z,33.895
2022-09-28T16:02:42.773Z,33.744
2022-09-28T16:17:44.662Z,33.302
2022-09-28T16:32:46.512Z,32.372
2022-09-28T16:47:48.341Z,31.642
2022-09-28T17:02:50.193Z,30.843
2022-09-28T17:17:52.057Z,30.554
2022-09-28T17:32:53.920Z,30.246
2022-09-28T17:47:55.763Z,29.846
2022-09-28T18:02:57.718Z,29.605
2022-09-28T18:17:59.626Z,30.288
2022-09-28T18:33:01.533Z,29.895
2022-09-28T18:48:03.402Z,29.393
2022-09-28T19:03:05.364Z,29.409
2022-09-28T19:18:07.300Z,28.619
2022-09-28T19:33:09.114Z,28.839
2022-09-28T19:48:10.958Z,27.235
2022-09-28T20:03:12.785Z,28.551
2022-09-28T20:18:14.639Z,29.141
2022-09-28T20:33:27.512Z,29.196
2022-09-28T20:48:30.290Z,28.044
2022-09-28T21:03:32.092Z,28.242
2022-09-28T21:18:33.977Z,29.106
2022-09-28T21:33:35.874Z,29.763
2022-09-28T21:48:37.780Z,30.153
2022-09-28T22:03:39.660Z,30.09
2022-09-28T22:18:41.556Z,30.463
2022-09-28T22:33:43.511Z,30.617
2022-09-28T22:48:45.445Z,30.591
2022-09-28T23:03:47.315Z,30.586
2022-09-28T23:18:49.329Z,30.661
2022-09-28T23:33:51.309Z,30.677
2022-09-28T23:48:53.221Z,29.87
